createdAt,value
2018-06-22T00:01:55.665Z,58.40
2018-06-22T00:04:24.111Z,58.40
2018-06-22T00:06:52.515Z,58.50
2018-06-22T00:09:20.962Z,58.80
2018-06-22T00:11:49.337Z,59.90
2018-06-22T00:14:17.679Z,59.40
2018-06-22T00:16:46.117Z,59.60
2018-06-22T00:19:14.491Z,59.30
2018-06-22T00:21:42.886Z,59.70
2018-06-22T00:24:11.286Z,59.80
2018-06-22T00:26:39.713Z,60.00
2018-06-22T00:31:36.279Z,60.00
2018-06-22T00:34:04.651Z,60.70
2018-06-22T00:36:33.066Z,61.30
2018-06-22T00:39:01.729Z,61.90
2018-06-22T00:41:30.106Z,62.40
2018-06-22T00:43:58.491Z,62.60
2018-06-22T00:46:27.064Z,62.90
2018-06-22T00:48:55.734Z,62.80
2018-06-22T00:51:24.309Z,62.60
2018-06-22T00:54:04.085Z,62.90
2018-06-22T00:56:32.479Z,63.30
2018-06-22T00:59:00.879Z,62.70
2018-06-22T01:01:29.290Z,62.30
2018-06-22T01:03:57.710Z,62.30
2018-06-22T01:06:26.095Z,62.60
2018-06-22T01:08:54.582Z,62.70
2018-06-22T01:11:22.974Z,63.10
2018-06-22T01:13:51.655Z,63.10
2018-06-22T01:16:20.039Z,63.20
2018-06-22T01:18:48.451Z,63.60
2018-06-22T01:21:16.818Z,64.40
2018-06-22T01:23:45.203Z,63.80
2018-06-22T01:26:13.600Z,64.50
2018-06-22T01:28:42.047Z,64.00
2018-06-22T01:31:10.430Z,63.70
2018-06-22T01:33:38.843Z,63.50
2018-06-22T01:36:07.242Z,63.70
2018-06-22T01:38:35.646Z,63.40
2018-06-22T01:41:04.030Z,63.50
2018-06-22T01:43:32.535Z,63.90
2018-06-22T01:46:00.901Z,64.20
2018-06-22T01:48:29.317Z,64.60
2018-06-22T01:50:57.712Z,64.80
2018-06-22T01:53:26.126Z,64.70
2018-06-22T01:55:54.491Z,65.00
2018-06-22T01:58:22.924Z,65.60
2018-06-22T02:00:51.437Z,65.60
2018-06-22T02:03:19.850Z,65.70
2018-06-22T02:05:48.215Z,65.90
2018-06-22T02:08:16.628Z,65.70
2018-06-22T02:10:44.998Z,66.20
2018-06-22T02:13:13.391Z,66.10
2018-06-22T02:15:41.767Z,65.90
2018-06-22T02:18:10.258Z,67.00
2018-06-22T02:20:38.774Z,66.70
2018-06-22T02:23:07.269Z,66.90
2018-06-22T02:25:35.654Z,66.90
2018-06-22T02:28:04.059Z,67.40
2018-06-22T02:30:32.444Z,67.50
2018-06-22T02:33:00.848Z,67.60
2018-06-22T02:35:29.214Z,67.30
2018-06-22T02:37:57.614Z,67.90
2018-06-22T02:40:26.010Z,68.20
2018-06-22T02:42:54.421Z,67.60
2018-06-22T02:45:22.825Z,68.20
2018-06-22T02:47:51.230Z,68.70
2018-06-22T02:50:19.663Z,68.20
2018-06-22T02:52:48.064Z,68.50
2018-06-22T02:55:16.477Z,68.20
2018-06-22T02:57:44.858Z,68.60
2018-06-22T03:00:13.272Z,68.30
2018-06-22T03:02:41.654Z,68.50
2018-06-22T03:05:10.091Z,69.20
2018-06-22T03:07:38.561Z,69.60
2018-06-22T03:10:07.268Z,70.00
2018-06-22T03:12:35.658Z,70.10
2018-06-22T03:15:04.550Z,70.30
2018-06-22T03:17:33.031Z,71.10
2018-06-22T03:20:01.394Z,70.40
2018-06-22T03:22:29.770Z,71.00
2018-06-22T03:24:58.358Z,71.00
2018-06-22T03:27:26.730Z,71.10
2018-06-22T03:29:55.222Z,71.70
2018-06-22T03:32:23.615Z,72.00
2018-06-22T03:34:51.995Z,72.20
2018-06-22T03:37:20.353Z,71.20
2018-06-22T03:39:48.725Z,71.50
2018-06-22T03:42:17.081Z,71.50
2018-06-22T03:44:45.493Z,71.60
2018-06-22T03:47:13.855Z,71.50
2018-06-22T03:49:42.210Z,71.00
2018-06-22T03:52:10.643Z,70.80
2018-06-22T03:54:38.982Z,70.90
2018-06-22T03:57:07.417Z,71.30
2018-06-22T03:59:35.766Z,70.50
2018-06-22T04:02:04.155Z,70.80
2018-06-22T04:04:32.598Z,70.60
2018-06-22T04:07:00.973Z,70.40
2018-06-22T04:09:29.362Z,70.40
2018-06-22T04:11:57.746Z,70.70
2018-06-22T04:14:26.055Z,70.40
2018-06-22T04:16:54.479Z,70.80
2018-06-22T04:19:22.813Z,69.80
2018-06-22T04:21:51.189Z,70.10
2018-06-22T04:24:19.541Z,69.70
2018-06-22T04:26:48.222Z,69.00
2018-06-22T04:29:18.226Z,69.10
2018-06-22T04:31:46.594Z,68.80
2018-06-22T04:34:15.645Z,68.80
2018-06-22T04:36:43.999Z,67.80
2018-06-22T04:39:13.230Z,68.60
2018-06-22T04:41:41.872Z,68.10
2018-06-22T04:44:10.206Z,68.20
2018-06-22T04:46:38.606Z,67.70
2018-06-22T04:49:06.981Z,67.90
2018-06-22T04:51:35.363Z,67.70
2018-06-22T04:54:03.713Z,66.90
2018-06-22T04:56:32.460Z,67.00
2018-06-22T04:59:00.867Z,67.60
2018-06-22T05:01:29.691Z,67.30
2018-06-22T05:03:58.106Z,67.80
2018-06-22T05:06:26.481Z,67.90
2018-06-22T05:08:54.985Z,67.10
2018-06-22T05:11:24.005Z,67.00
2018-06-22T05:13:52.426Z,67.10
2018-06-22T05:16:20.773Z,67.40
2018-06-22T05:18:49.194Z,67.70
2018-06-22T05:21:17.645Z,67.10
2018-06-22T05:23:46.006Z,66.80
2018-06-22T05:26:14.414Z,66.60
2018-06-22T05:28:42.914Z,65.70
2018-06-22T05:31:11.288Z,65.10
2018-06-22T05:33:39.710Z,64.20
2018-06-22T05:36:08.149Z,63.40
2018-06-22T05:38:36.827Z,63.10
2018-06-22T05:41:05.239Z,62.80
2018-06-22T05:43:33.600Z,62.10
2018-06-22T05:46:02.110Z,61.80
2018-06-22T05:48:30.690Z,61.10
2018-06-22T05:50:59.205Z,61.00
2018-06-22T05:53:27.565Z,60.20
2018-06-22T05:55:56.003Z,59.90
2018-06-22T05:58:24.394Z,60.00
2018-06-22T06:00:53.312Z,59.50
2018-06-22T06:03:21.791Z,58.90
2018-06-22T06:05:50.163Z,58.60
2018-06-22T06:08:18.637Z,58.30
2018-06-22T06:10:47.271Z,58.50
2018-06-22T06:13:15.671Z,58.80
2018-06-22T06:15:44.115Z,58.50
2018-06-22T06:18:12.527Z,58.20
2018-06-22T06:20:41.056Z,57.90
2018-06-22T06:23:09.604Z,57.30
2018-06-22T06:25:38.205Z,57.70
2018-06-22T06:28:06.561Z,57.20
2018-06-22T06:30:34.939Z,57.50
2018-06-22T06:33:03.478Z,57.70
2018-06-22T06:35:32.183Z,57.40
2018-06-22T06:38:00.579Z,58.20
2018-06-22T06:40:28.933Z,58.90
2018-06-22T06:42:57.399Z,59.00
2018-06-22T06:45:25.734Z,58.60
2018-06-22T06:47:54.098Z,58.90
2018-06-22T06:50:22.506Z,59.00
2018-06-22T06:52:50.918Z,58.00
2018-06-22T06:55:19.254Z,57.70
2018-06-22T06:57:47.642Z,57.50
2018-06-22T07:00:16.019Z,56.90
2018-06-22T07:02:44.403Z,55.80
2018-06-22T07:05:12.918Z,55.00
2018-06-22T07:07:41.463Z,55.40
2018-06-22T07:10:09.843Z,54.80
2018-06-22T07:12:38.225Z,54.70
2018-06-22T07:15:06.614Z,53.90
2018-06-22T07:17:35.285Z,51.90
2018-06-22T07:20:03.782Z,51.90
2018-06-22T07:22:32.160Z,51.60
2018-06-22T07:25:00.683Z,51.80
2018-06-22T07:27:29.121Z,50.60
2018-06-22T07:29:57.679Z,50.30
2018-06-22T07:32:26.075Z,49.80
2018-06-22T07:34:54.499Z,49.00
2018-06-22T07:37:22.979Z,48.70
2018-06-22T07:39:51.430Z,49.70
2018-06-22T07:42:19.972Z,50.70
2018-06-22T07:44:48.419Z,50.20
2018-06-22T07:47:16.802Z,48.50
2018-06-22T07:49:45.249Z,48.30
2018-06-22T07:52:13.605Z,48.60
2018-06-22T07:54:42.014Z,48.00
2018-06-22T07:57:10.445Z,48.90
2018-06-22T07:59:38.945Z,48.20
2018-06-22T08:02:07.456Z,48.90
2018-06-22T08:04:35.853Z,48.70
2018-06-22T08:07:10.918Z,48.00
2018-06-22T08:09:39.329Z,47.80
2018-06-22T08:12:07.708Z,48.80
2018-06-22T08:14:36.150Z,49.20
2018-06-22T08:17:11.123Z,48.80
2018-06-22T08:19:39.517Z,47.30
2018-06-22T08:22:07.952Z,47.40
2018-06-22T08:24:36.338Z,46.90
2018-06-22T08:27:05.247Z,46.20
2018-06-22T08:29:33.609Z,45.80
2018-06-22T08:32:02.108Z,45.20
2018-06-22T08:34:30.503Z,45.60
2018-06-22T08:36:58.947Z,45.20
2018-06-22T08:39:27.320Z,44.40
2018-06-22T08:41:55.755Z,45.20
2018-06-22T08:44:24.296Z,45.10
2018-06-22T08:46:52.667Z,45.20
2018-06-22T08:49:21.018Z,44.40
2018-06-22T08:51:49.443Z,44.50
2018-06-22T08:54:17.871Z,45.40
2018-06-22T08:56:46.493Z,45.40
2018-06-22T08:59:14.991Z,45.60
2018-06-22T09:01:43.470Z,45.60
2018-06-22T09:04:11.965Z,45.80
2018-06-22T09:06:40.427Z,45.60
2018-06-22T09:09:08.842Z,45.50
2018-06-22T09:11:38.109Z,44.80
2018-06-22T09:14:08.103Z,44.60
2018-06-22T09:16:36.507Z,44.80
2018-06-22T09:19:05.304Z,44.70
2018-06-22T09:21:33.650Z,44.90
2018-06-22T09:24:02.200Z,44.30
2018-06-22T09:26:30.751Z,44.50
2018-06-22T09:28:59.315Z,44.20
2018-06-22T09:31:28.171Z,43.70
2018-06-22T09:33:56.622Z,43.40
2018-06-22T09:36:24.968Z,42.90
2018-06-22T09:38:53.434Z,43.70
2018-06-22T09:41:22.209Z,43.40
2018-06-22T09:43:50.579Z,42.90
2018-06-22T09:46:19.134Z,42.80
2018-06-22T09:51:15.645Z,42.90
2018-06-22T09:53:44.209Z,42.60
2018-06-22T09:56:12.658Z,41.60
2018-06-22T09:58:41.296Z,41.60
2018-06-22T10:01:09.740Z,42.00
2018-06-22T10:03:38.186Z,42.20
2018-06-22T10:06:06.810Z,40.00
2018-06-22T10:08:35.172Z,39.80
2018-06-22T10:11:03.601Z,38.90
2018-06-22T10:13:32.067Z,40.20
2018-06-22T10:16:00.519Z,40.60
2018-06-22T10:18:28.923Z,40.10
2018-06-22T10:20:57.786Z,39.20
2018-06-22T10:23:26.243Z,38.70
2018-06-22T10:25:54.694Z,37.30
2018-06-22T10:28:23.118Z,35.40
2018-06-22T10:30:51.624Z,34.80
2018-06-22T10:33:19.994Z,34.80
2018-06-22T10:35:48.449Z,35.10
2018-06-22T10:38:16.886Z,34.00
2018-06-22T10:40:45.354Z,34.20
2018-06-22T10:43:13.804Z,33.40
2018-06-22T10:45:42.240Z,32.80
2018-06-22T10:48:10.605Z,32.30
2018-06-22T10:50:39.086Z,32.00
2018-06-22T10:53:07.573Z,31.30
2018-06-22T10:55:35.990Z,31.20
2018-06-22T10:58:05.086Z,31.20
2018-06-22T11:00:33.576Z,30.10
2018-06-22T11:03:02.003Z,29.70
2018-06-22T11:05:30.479Z,29.80
2018-06-22T11:07:58.948Z,29.90
2018-06-22T11:12:55.521Z,31.40
2018-06-22T11:15:24.022Z,33.50
2018-06-22T11:17:52.414Z,33.20
2018-06-22T11:20:20.753Z,33.20
2018-06-22T11:22:49.250Z,33.20
2018-06-22T11:25:17.700Z,32.50
2018-06-22T11:27:46.115Z,32.00
2018-06-22T11:30:14.562Z,31.20
2018-06-22T11:32:45.865Z,32.50
2018-06-22T11:35:14.281Z,34.10
2018-06-22T11:37:42.665Z,34.00
2018-06-22T11:40:11.039Z,34.30
2018-06-22T11:42:39.492Z,34.90
2018-06-22T11:45:07.918Z,35.90
2018-06-22T11:47:36.374Z,35.40
2018-06-22T11:50:04.806Z,33.80
2018-06-22T11:52:33.294Z,32.70
2018-06-22T11:55:01.751Z,31.60
2018-06-22T11:57:30.386Z,33.00
2018-06-22T11:59:58.821Z,34.00
2018-06-22T12:02:27.318Z,35.00
2018-06-22T12:04:55.800Z,35.40
2018-06-22T12:07:24.441Z,35.10
2018-06-22T12:09:52.837Z,35.10
2018-06-22T12:12:21.281Z,35.10
2018-06-22T12:14:49.848Z,34.40
2018-06-22T12:17:18.309Z,34.00
2018-06-22T12:19:46.827Z,33.70
2018-06-22T12:22:15.327Z,32.00
2018-06-22T12:24:43.889Z,32.30
2018-06-22T12:27:12.345Z,30.40
2018-06-22T12:29:40.737Z,30.70
2018-06-22T12:32:09.155Z,32.10
2018-06-22T12:34:37.583Z,30.80
2018-06-22T12:37:05.987Z,30.50
2018-06-22T12:39:34.491Z,30.90
2018-06-22T12:42:02.949Z,31.70
2018-06-22T12:44:31.620Z,32.60
2018-06-22T12:47:00.101Z,33.50
2018-06-22T12:49:28.562Z,34.40
2018-06-22T12:51:56.959Z,33.60
2018-06-22T12:54:25.430Z,31.90
2018-06-22T12:56:53.877Z,29.50
2018-06-22T12:59:22.251Z,29.00
2018-06-22T13:01:50.746Z,27.60
2018-06-22T13:04:19.261Z,27.00
2018-06-22T13:06:47.674Z,28.00
2018-06-22T13:09:16.417Z,28.80
2018-06-22T13:11:44.848Z,28.10
2018-06-22T13:14:13.233Z,27.50
2018-06-22T13:16:42.223Z,26.30
2018-06-22T13:19:10.698Z,26.20
2018-06-22T13:21:51.886Z,25.80
2018-06-22T13:24:21.700Z,25.60
2018-06-22T13:26:50.137Z,25.10
2018-06-22T13:29:18.553Z,25.00
2018-06-22T13:31:46.993Z,25.30
2018-06-22T13:34:16.560Z,24.50
2018-06-22T13:36:45.902Z,24.00
2018-06-22T13:39:16.715Z,24.10
2018-06-22T13:41:45.560Z,23.80
2018-06-22T13:44:14.053Z,25.50
2018-06-22T13:46:43.222Z,27.10
2018-06-22T13:49:12.172Z,28.40
2018-06-22T13:51:40.722Z,29.20
2018-06-22T13:54:09.646Z,30.20
2018-06-22T13:56:38.314Z,28.40
2018-06-22T13:59:06.846Z,26.50
2018-06-22T14:01:35.639Z,26.00
2018-06-22T14:04:09.626Z,26.80
2018-06-22T14:06:43.391Z,28.60
2018-06-22T14:09:13.462Z,28.60
2018-06-22T14:11:42.169Z,26.90
2018-06-22T14:14:10.781Z,27.20
2018-06-22T14:16:39.683Z,27.30
2018-06-22T14:19:08.509Z,27.70
2018-06-22T14:21:37.116Z,28.70
2018-06-22T14:24:07.131Z,29.80
2018-06-22T14:26:35.559Z,31.30
2018-06-22T14:29:04.342Z,31.30
2018-06-22T14:31:32.757Z,29.10
2018-06-22T14:34:01.352Z,28.50
2018-06-22T14:36:30.039Z,29.70
2018-06-22T14:38:58.542Z,29.80
2018-06-22T14:41:27.137Z,26.90
2018-06-22T14:43:56.058Z,25.40
2018-06-22T14:46:24.805Z,23.70
2018-06-22T14:48:53.340Z,22.00
2018-06-22T14:51:21.766Z,22.10
2018-06-22T14:53:55.635Z,23.40
2018-06-22T14:56:29.539Z,23.40
2018-06-22T14:59:03.202Z,22.40
2018-06-22T15:01:36.867Z,23.60
2018-06-22T15:04:10.748Z,24.80
2018-06-22T15:06:44.477Z,25.80
2018-06-22T15:09:12.853Z,27.60
2018-06-22T15:11:41.326Z,29.40
2018-06-22T15:14:09.756Z,30.40
2018-06-22T15:16:38.257Z,30.80
2018-06-22T15:19:06.858Z,30.70
2018-06-22T15:21:35.268Z,29.70
2018-06-22T15:24:03.789Z,28.30
2018-06-22T15:26:32.235Z,27.80
2018-06-22T15:29:00.634Z,27.50
2018-06-22T15:31:29.063Z,28.00
2018-06-22T15:36:36.390Z,29.60
2018-06-22T15:39:13.356Z,30.30
2018-06-22T15:41:47.634Z,30.90
2018-06-22T15:44:21.620Z,32.20
2018-06-22T15:46:55.435Z,33.10
2018-06-22T15:49:29.329Z,33.30
2018-06-22T15:52:03.083Z,33.70
2018-06-22T15:54:36.824Z,33.00
2018-06-22T15:57:05.353Z,31.30
2018-06-22T15:59:33.766Z,31.90
2018-06-22T16:02:07.673Z,32.90
2018-06-22T16:04:36.197Z,33.70
2018-06-22T16:07:04.658Z,33.40
2018-06-22T16:09:37.420Z,30.00
2018-06-22T16:12:11.609Z,27.80
2018-06-22T16:14:45.320Z,26.00
2018-06-22T16:20:51.434Z,22.90
2018-06-22T16:23:25.616Z,21.90
2018-06-22T16:25:59.547Z,21.10
2018-06-22T16:28:28.006Z,21.60
2018-06-22T16:30:56.426Z,22.00
2018-06-22T16:33:25.506Z,23.50
2018-06-22T16:35:53.904Z,24.40
2018-06-22T16:38:22.275Z,25.60
2018-06-22T16:40:50.728Z,26.80
2018-06-22T16:43:19.226Z,28.20
2018-06-22T16:45:47.718Z,29.50
2018-06-22T16:48:16.178Z,30.20
2018-06-22T16:50:44.567Z,31.00
2018-06-22T16:53:13.098Z,32.20
2018-06-22T16:55:41.671Z,33.30
2018-06-22T16:58:15.460Z,33.30
2018-06-22T17:00:43.902Z,34.10
2018-06-22T17:03:12.655Z,33.40
2018-06-22T17:05:41.241Z,33.10
2018-06-22T17:08:15.611Z,34.00
2018-06-22T17:10:49.581Z,34.00
2018-06-22T17:13:23.357Z,33.80
2018-06-22T17:15:57.330Z,33.50
2018-06-22T17:18:31.035Z,32.40
2018-06-22T17:20:59.378Z,31.30
2018-06-22T17:23:27.806Z,30.50
2018-06-22T17:25:56.561Z,30.80
2018-06-22T17:28:24.924Z,32.90
2018-06-22T17:30:53.523Z,35.00
2018-06-22T17:33:22.041Z,36.50
2018-06-22T17:35:50.502Z,36.30
2018-06-22T17:38:18.943Z,36.20
2018-06-22T17:40:47.475Z,36.40
2018-06-22T17:43:16.010Z,36.80
2018-06-22T17:45:44.393Z,37.20
2018-06-22T17:48:12.932Z,37.40
2018-06-22T17:50:41.577Z,37.90
2018-06-22T17:53:10.766Z,38.50
2018-06-22T17:55:39.317Z,38.70
2018-06-22T17:58:07.766Z,39.60
2018-06-22T18:00:41.525Z,40.50
2018-06-22T18:03:15.226Z,41.20
2018-06-22T18:08:22.543Z,41.50
2018-06-22T18:10:56.506Z,40.00
2018-06-22T18:13:24.947Z,37.40
2018-06-22T18:15:53.438Z,35.00
2018-06-22T18:18:21.849Z,33.10
2018-06-22T18:20:50.519Z,31.30
2018-06-22T18:23:18.943Z,30.30
2018-06-22T18:25:47.311Z,30.90
2018-06-22T18:28:15.788Z,30.60
2018-06-22T18:30:44.166Z,30.40
2018-06-22T18:33:12.657Z,30.60
2018-06-22T18:35:40.978Z,31.40
2018-06-22T18:38:09.357Z,31.80
2018-06-22T18:40:37.818Z,31.30
2018-06-22T18:43:07.277Z,31.70
2018-06-22T18:45:35.648Z,32.70
2018-06-22T18:48:04.041Z,34.20
2018-06-22T18:50:32.455Z,36.70
2018-06-22T18:53:06.290Z,38.60
2018-06-22T18:55:40.104Z,39.40
2018-06-22T18:58:13.968Z,39.60
2018-06-22T19:00:47.774Z,39.50
2018-06-22T19:03:21.709Z,39.50
2018-06-22T19:05:50.100Z,39.50
2018-06-22T19:08:18.486Z,39.40
2018-06-22T19:10:46.902Z,39.90
2018-06-22T19:13:15.275Z,40.60
2018-06-22T19:15:44.241Z,41.60
2018-06-22T19:18:12.683Z,42.50
2018-06-22T19:20:41.042Z,43.80
2018-06-22T19:23:09.502Z,44.80
2018-06-22T19:25:37.895Z,45.90
2018-06-22T19:28:06.548Z,46.10
2018-06-22T19:30:34.958Z,46.80
2018-06-22T19:33:03.493Z,47.10
2018-06-22T19:35:31.910Z,47.70
2018-06-22T19:38:00.391Z,48.30
2018-06-22T19:40:28.934Z,48.60
2018-06-22T19:42:57.317Z,49.10
2018-06-22T19:45:31.148Z,49.20
2018-06-22T19:48:05.015Z,49.70
2018-06-22T19:50:38.601Z,50.00
2018-06-22T19:53:12.294Z,50.10
2018-06-22T19:55:40.714Z,50.20
2018-06-22T19:58:09.075Z,50.40
2018-06-22T20:00:37.493Z,50.60
2018-06-22T20:03:05.858Z,51.00
2018-06-22T20:05:34.339Z,51.40
2018-06-22T20:08:02.765Z,51.80
2018-06-22T20:10:31.213Z,52.20
2018-06-22T20:12:59.641Z,52.50
2018-06-22T20:15:28.116Z,52.50
2018-06-22T20:17:56.607Z,52.60
2018-06-22T20:20:25.073Z,52.80
2018-06-22T20:25:26.976Z,53.30
2018-06-22T20:27:55.398Z,53.80
2018-06-22T20:30:24.276Z,54.30
2018-06-22T20:32:52.622Z,54.80
2018-06-22T20:35:26.485Z,55.20
2018-06-22T20:38:00.335Z,55.50
2018-06-22T20:40:34.210Z,56.30
2018-06-22T20:44:06.819Z,56.00
2018-06-22T20:47:38.427Z,56.80
2018-06-22T20:50:12.197Z,56.20
2018-06-22T20:52:40.594Z,56.40
2018-06-22T20:55:09.081Z,56.50
2018-06-22T20:57:37.517Z,56.70
2018-06-22T21:00:06.267Z,57.40
2018-06-22T21:02:34.665Z,57.50
2018-06-22T21:05:03.191Z,58.00
2018-06-22T21:07:31.597Z,58.40
2018-06-22T21:09:59.995Z,58.30
2018-06-22T21:12:40.415Z,58.60
2018-06-22T21:14:56.826Z,58.60
2018-06-22T21:17:25.386Z,58.50
2018-06-22T21:19:53.838Z,58.80
2018-06-22T21:22:22.386Z,59.00
2018-06-22T21:24:50.892Z,59.60
2018-06-22T21:27:24.652Z,59.10
2018-06-22T21:29:58.352Z,59.20
2018-06-22T21:32:31.982Z,59.40
2018-06-22T21:35:05.803Z,59.80
2018-06-22T21:37:39.638Z,59.50
2018-06-22T21:40:08.086Z,59.60
2018-06-22T21:42:36.474Z,59.90
2018-06-22T21:45:04.977Z,60.10
2018-06-22T21:47:33.492Z,60.60
2018-06-22T21:50:01.919Z,61.00
2018-06-22T21:52:30.314Z,61.50
2018-06-22T21:54:58.714Z,61.70
2018-06-22T21:57:27.202Z,61.10
2018-06-22T21:59:56.317Z,61.30
2018-06-22T22:02:24.737Z,61.50
2018-06-22T22:04:53.149Z,61.30
2018-06-22T22:07:21.682Z,61.80
2018-06-22T22:09:50.078Z,62.00
2018-06-22T22:12:18.493Z,62.00
2018-06-22T22:14:46.877Z,62.10
2018-06-22T22:17:15.389Z,62.50
2018-06-22T22:19:43.803Z,63.50
2018-06-22T22:22:12.312Z,63.90
2018-06-22T22:24:40.728Z,64.10
2018-06-22T22:27:09.238Z,64.20
2018-06-22T22:29:37.661Z,64.30
2018-06-22T22:32:06.212Z,64.70
2018-06-22T22:34:34.689Z,65.00
2018-06-22T22:37:03.053Z,65.10
2018-06-22T22:39:31.474Z,65.20
2018-06-22T22:41:59.861Z,65.20
2018-06-22T22:44:28.228Z,65.70
2018-06-22T22:46:56.646Z,66.10
2018-06-22T22:49:25.030Z,66.50
2018-06-22T22:51:53.373Z,66.90
2018-06-22T22:54:22.629Z,67.10
2018-06-22T22:56:51.030Z,67.10
2018-06-22T23:01:47.648Z,67.80
2018-06-22T23:04:16.070Z,68.00
2018-06-22T23:06:45.230Z,68.30
2018-06-22T23:09:13.884Z,68.40
2018-06-22T23:11:42.278Z,68.60
2018-06-22T23:14:10.696Z,68.80
2018-06-22T23:16:39.033Z,69.00
2018-06-22T23:19:07.452Z,69.00
2018-06-22T23:24:04.059Z,69.30
2018-06-22T23:26:32.446Z,69.20
2018-06-22T23:29:00.811Z,69.10
2018-06-22T23:31:29.167Z,69.30
2018-06-22T23:33:57.787Z,69.40
2018-06-22T23:36:26.165Z,69.30
2018-06-22T23:38:54.586Z,70.00
2018-06-22T23:41:22.990Z,70.20
2018-06-22T23:43:51.440Z,70.50
2018-06-22T23:46:19.825Z,70.30
2018-06-22T23:48:48.274Z,70.50
2018-06-22T23:51:16.674Z,70.70
2018-06-22T23:53:45.075Z,71.00
2018-06-22T23:56:13.641Z,70.70
2018-06-22T23:58:42.008Z,70.70
